sensor_id;sensor_type;location;lat;lon;timestamp;temperature;humidity
29939;DHT22;16799;50.844;5.304;2023-02-21T00:02:09;7.60;99.90
29939;DHT22;16799;50.844;5.304;2023-02-21T00:04:53;7.60;99.90
29939;DHT22;16799;50.844;5.304;2023-02-21T00:07:37;7.50;99.90
29939;DHT22;16799;50.844;5.304;2023-02-21T00:10:22;7.50;99.90
29939;DHT22;16799;50.844;5.304;2023-02-21T00:13:06;7.50;99.90
29939;DHT22;16799;50.844;5.304;2023-02-21T00:15:50;7.50;99.90
29939;DHT22;16799;50.844;5.304;2023-02-21T00:18:34;7.50;99.90
29939;DHT22;16799;50.844;5.304;2023-02-21T00:21:19;7.50;99.90
29939;DHT22;16799;50.844;5.304;2023-02-21T00:24:03;7.50;99.90
29939;DHT22;16799;50.844;5.304;2023-02-21T00:26:48;7.50;99.90
29939;DHT22;16799;50.844;5.304;2023-02-21T00:29:32;7.60;99.90
29939;DHT22;16799;50.844;5.304;2023-02-21T00:32:16;7.60;99.90
29939;DHT22;16799;50.844;5.304;2023-02-21T00:35:00;7.50;99.90
29939;DHT22;16799;50.844;5.304;2023-02-21T00:37:49;7.40;99.90
29939;DHT22;16799;50.844;5.304;2023-02-21T00:40:33;7.40;99.90
29939;DHT22;16799;50.844;5.304;2023-02-21T00:43:17;7.40;99.90
29939;DHT22;16799;50.844;5.304;2023-02-21T00:46:02;7.30;99.90
29939;DHT22;16799;50.844;5.304;2023-02-21T00:48:47;7.30;99.90
29939;DHT22;16799;50.844;5.304;2023-02-21T00:51:31;7.20;99.90
29939;DHT22;16799;50.844;5.304;2023-02-21T00:54:15;7.10;99.90
29939;DHT22;16799;50.844;5.304;2023-02-21T00:56:59;7.10;99.90
29939;DHT22;16799;50.844;5.304;2023-02-21T00:59:43;7.10;99.90
29939;DHT22;16799;50.844;5.304;2023-02-21T01:02:27;7.00;99.90
29939;DHT22;16799;50.844;5.304;2023-02-21T01:05:11;7.00;99.90
29939;DHT22;16799;50.844;5.304;2023-02-21T01:07:55;7.00;99.90
29939;DHT22;16799;50.844;5.304;2023-02-21T01:10:39;7.00;99.90
29939;DHT22;16799;50.844;5.304;2023-02-21T01:13:23;7.00;99.90
29939;DHT22;16799;50.844;5.304;2023-02-21T01:16:07;6.90;99.90
29939;DHT22;16799;50.844;5.304;2023-02-21T01:18:52;6.90;99.90
29939;DHT22;16799;50.844;5.304;2023-02-21T01:21:36;6.90;99.90
29939;DHT22;16799;50.844;5.304;2023-02-21T01:24:20;6.90;99.90
29939;DHT22;16799;50.844;5.304;2023-02-21T01:27:04;6.90;99.90
29939;DHT22;16799;50.844;5.304;2023-02-21T01:29:48;6.90;99.90
29939;DHT22;16799;50.844;5.304;2023-02-21T01:32:32;6.90;99.90
29939;DHT22;16799;50.844;5.304;2023-02-21T01:35:16;6.90;99.90
29939;DHT22;16799;50.844;5.304;2023-02-21T01:38:00;6.90;99.90
29939;DHT22;16799;50.844;5.304;2023-02-21T01:40:44;6.90;99.90
29939;DHT22;16799;50.844;5.304;2023-02-21T01:43:29;6.90;99.90
29939;DHT22;16799;50.844;5.304;2023-02-21T01:46:18;6.90;99.90
29939;DHT22;16799;50.844;5.304;2023-02-21T01:49:14;6.90;99.90
29939;DHT22;16799;50.844;5.304;2023-02-21T01:52:00;7.00;99.90
29939;DHT22;16799;50.844;5.304;2023-02-21T01:54:50;7.00;99.90
29939;DHT22;16799;50.844;5.304;2023-02-21T01:57:35;7.00;99.90
29939;DHT22;16799;50.844;5.304;2023-02-21T02:00:20;7.00;99.90
29939;DHT22;16799;50.844;5.304;2023-02-21T02:03:07;7.00;99.90
29939;DHT22;16799;50.844;5.304;2023-02-21T02:05:59;6.90;99.90
29939;DHT22;16799;50.844;5.304;2023-02-21T02:08:44;6.90;99.90
29939;DHT22;16799;50.844;5.304;2023-02-21T02:29:11;6.70;99.90
29939;DHT22;16799;50.844;5.304;2023-02-21T02:34:30;6.70;99.90
29939;DHT22;16799;50.844;5.304;2023-02-21T02:44:57;6.70;99.90
29939;DHT22;16799;50.844;5.304;2023-02-21T02:47:28;6.70;99.90
29939;DHT22;16799;50.844;5.304;2023-02-21T02:49:57;6.70;99.90
29939;DHT22;16799;50.844;5.304;2023-02-21T02:52:23;6.70;99.90
29939;DHT22;16799;50.844;5.304;2023-02-21T02:55:00;6.80;99.90
29939;DHT22;16799;50.844;5.304;2023-02-21T02:57:29;6.80;99.90
29939;DHT22;16799;50.844;5.304;2023-02-21T03:00:04;6.80;99.90
29939;DHT22;16799;50.844;5.304;2023-02-21T03:05:38;6.90;99.90
29939;DHT22;16799;50.844;5.304;2023-02-21T03:11:22;6.80;99.90
29939;DHT22;16799;50.844;5.304;2023-02-21T03:21:24;6.80;99.90
29939;DHT22;16799;50.844;5.304;2023-02-21T03:23:53;6.80;99.90
29939;DHT22;16799;50.844;5.304;2023-02-21T03:26:21;6.80;99.90
29939;DHT22;16799;50.844;5.304;2023-02-21T03:28:47;6.80;99.90
29939;DHT22;16799;50.844;5.304;2023-02-21T03:31:16;6.80;99.90
29939;DHT22;16799;50.844;5.304;2023-02-21T03:33:44;6.80;99.90
29939;DHT22;16799;50.844;5.304;2023-02-21T03:36:10;6.80;99.90
29939;DHT22;16799;50.844;5.304;2023-02-21T03:38:36;6.80;99.90
29939;DHT22;16799;50.844;5.304;2023-02-21T03:41:02;6.80;99.90
29939;DHT22;16799;50.844;5.304;2023-02-21T03:43:27;6.80;99.90
29939;DHT22;16799;50.844;5.304;2023-02-21T03:45:53;6.80;99.90
29939;DHT22;16799;50.844;5.304;2023-02-21T03:48:19;6.80;99.90
29939;DHT22;16799;50.844;5.304;2023-02-21T03:50:44;6.80;99.90
29939;DHT22;16799;50.844;5.304;2023-02-21T03:53:10;6.90;99.90
29939;DHT22;16799;50.844;5.304;2023-02-21T03:55:36;6.90;99.90
29939;DHT22;16799;50.844;5.304;2023-02-21T03:58:01;6.80;99.90
29939;DHT22;16799;50.844;5.304;2023-02-21T04:00:27;6.80;99.90
29939;DHT22;16799;50.844;5.304;2023-02-21T04:02:53;7.00;99.90
29939;DHT22;16799;50.844;5.304;2023-02-21T04:05:18;7.00;99.90
29939;DHT22;16799;50.844;5.304;2023-02-21T04:07:44;6.90;99.90
29939;DHT22;16799;50.844;5.304;2023-02-21T04:10:11;7.10;99.90
29939;DHT22;16799;50.844;5.304;2023-02-21T04:12:36;7.10;99.90
29939;DHT22;16799;50.844;5.304;2023-02-21T04:15:02;7.10;99.90
29939;DHT22;16799;50.844;5.304;2023-02-21T04:17:28;7.00;99.90
29939;DHT22;16799;50.844;5.304;2023-02-21T04:19:53;6.90;99.90
29939;DHT22;16799;50.844;5.304;2023-02-21T04:22:19;6.90;99.90
29939;DHT22;16799;50.844;5.304;2023-02-21T04:24:45;7.00;99.90
29939;DHT22;16799;50.844;5.304;2023-02-21T04:27:13;7.00;99.90
29939;DHT22;16799;50.844;5.304;2023-02-21T04:29:39;6.90;99.90
29939;DHT22;16799;50.844;5.304;2023-02-21T04:32:04;6.90;99.90
29939;DHT22;16799;50.844;5.304;2023-02-21T04:34:30;6.80;99.90
29939;DHT22;16799;50.844;5.304;2023-02-21T04:36:56;6.80;99.90
29939;DHT22;16799;50.844;5.304;2023-02-21T04:39:21;6.80;99.90
29939;DHT22;16799;50.844;5.304;2023-02-21T04:41:47;6.80;99.90
29939;DHT22;16799;50.844;5.304;2023-02-21T04:44:13;6.80;99.90
29939;DHT22;16799;50.844;5.304;2023-02-21T04:46:39;6.70;99.90
29939;DHT22;16799;50.844;5.304;2023-02-21T04:49:04;6.70;99.90
29939;DHT22;16799;50.844;5.304;2023-02-21T04:51:30;6.70;99.90
29939;DHT22;16799;50.844;5.304;2023-02-21T04:53:56;6.70;99.90
29939;DHT22;16799;50.844;5.304;2023-02-21T04:56:24;6.70;99.90
29939;DHT22;16799;50.844;5.304;2023-02-21T04:58:50;6.80;99.90
29939;DHT22;16799;50.844;5.304;2023-02-21T05:01:17;6.80;99.90
29939;DHT22;16799;50.844;5.304;2023-02-21T05:03:44;6.90;99.90
29939;DHT22;16799;50.844;5.304;2023-02-21T05:06:10;6.80;99.90
29939;DHT22;16799;50.844;5.304;2023-02-21T05:08:40;6.80;99.90
29939;DHT22;16799;50.844;5.304;2023-02-21T05:11:06;6.70;99.90
29939;DHT22;16799;50.844;5.304;2023-02-21T05:13:33;6.90;99.90
29939;DHT22;16799;50.844;5.304;2023-02-21T05:15:58;6.90;99.90
29939;DHT22;16799;50.844;5.304;2023-02-21T05:18:24;6.80;99.90
29939;DHT22;16799;50.844;5.304;2023-02-21T05:20:53;6.80;99.90
29939;DHT22;16799;50.844;5.304;2023-02-21T05:23:19;6.70;99.90
29939;DHT22;16799;50.844;5.304;2023-02-21T05:26:09;6.70;99.90
29939;DHT22;16799;50.844;5.304;2023-02-21T05:28:36;6.80;99.90
29939;DHT22;16799;50.844;5.304;2023-02-21T05:31:02;6.90;99.90
29939;DHT22;16799;50.844;5.304;2023-02-21T05:33:28;6.90;99.90
29939;DHT22;16799;50.844;5.304;2023-02-21T05:35:54;6.90;99.90
29939;DHT22;16799;50.844;5.304;2023-02-21T05:38:22;6.90;99.90
29939;DHT22;16799;50.844;5.304;2023-02-21T05:40:48;6.90;99.90
29939;DHT22;16799;50.844;5.304;2023-02-21T05:43:14;6.90;99.90
29939;DHT22;16799;50.844;5.304;2023-02-21T05:45:40;6.80;99.90
29939;DHT22;16799;50.844;5.304;2023-02-21T05:48:06;6.80;99.90
29939;DHT22;16799;50.844;5.304;2023-02-21T05:50:32;6.90;99.90
29939;DHT22;16799;50.844;5.304;2023-02-21T05:52:59;7.00;99.90
29939;DHT22;16799;50.844;5.304;2023-02-21T05:55:24;6.90;99.90
29939;DHT22;16799;50.844;5.304;2023-02-21T05:57:51;6.90;99.90
29939;DHT22;16799;50.844;5.304;2023-02-21T06:00:28;6.80;99.90
29939;DHT22;16799;50.844;5.304;2023-02-21T06:02:54;6.70;99.90
29939;DHT22;16799;50.844;5.304;2023-02-21T06:05:21;6.70;99.90
29939;DHT22;16799;50.844;5.304;2023-02-21T06:07:48;6.60;99.90
29939;DHT22;16799;50.844;5.304;2023-02-21T06:10:14;6.60;99.90
29939;DHT22;16799;50.844;5.304;2023-02-21T06:12:40;6.50;99.90
29939;DHT22;16799;50.844;5.304;2023-02-21T06:15:06;6.60;99.90
29939;DHT22;16799;50.844;5.304;2023-02-21T06:17:33;6.60;99.90
29939;DHT22;16799;50.844;5.304;2023-02-21T06:20:00;6.70;99.90
29939;DHT22;16799;50.844;5.304;2023-02-21T06:22:25;6.70;99.90
29939;DHT22;16799;50.844;5.304;2023-02-21T06:24:51;6.80;99.90
29939;DHT22;16799;50.844;5.304;2023-02-21T06:27:17;7.00;99.90
29939;DHT22;16799;50.844;5.304;2023-02-21T06:29:42;7.00;99.90
29939;DHT22;16799;50.844;5.304;2023-02-21T06:32:08;7.00;99.90
29939;DHT22;16799;50.844;5.304;2023-02-21T06:34:34;7.10;99.90
29939;DHT22;16799;50.844;5.304;2023-02-21T06:36:59;6.90;99.90
29939;DHT22;16799;50.844;5.304;2023-02-21T06:39:25;6.70;99.90
29939;DHT22;16799;50.844;5.304;2023-02-21T06:41:51;6.70;99.90
29939;DHT22;16799;50.844;5.304;2023-02-21T06:44:18;6.60;99.90
29939;DHT22;16799;50.844;5.304;2023-02-21T06:46:44;6.60;99.90
29939;DHT22;16799;50.844;5.304;2023-02-21T06:49:10;6.60;99.90
29939;DHT22;16799;50.844;5.304;2023-02-21T06:51:38;6.50;99.90
29939;DHT22;16799;50.844;5.304;2023-02-21T06:54:05;6.60;99.90
29939;DHT22;16799;50.844;5.304;2023-02-21T06:56:32;6.60;99.90
29939;DHT22;16799;50.844;5.304;2023-02-21T06:58:58;6.60;99.90
29939;DHT22;16799;50.844;5.304;2023-02-21T07:01:25;6.60;99.90
29939;DHT22;16799;50.844;5.304;2023-02-21T07:03:53;6.60;99.90
29939;DHT22;16799;50.844;5.304;2023-02-21T07:06:19;6.50;99.90
29939;DHT22;16799;50.844;5.304;2023-02-21T07:08:45;6.50;99.90
29939;DHT22;16799;50.844;5.304;2023-02-21T07:11:11;6.50;99.90
29939;DHT22;16799;50.844;5.304;2023-02-21T07:13:37;6.50;99.90
29939;DHT22;16799;50.844;5.304;2023-02-21T07:16:03;6.50;99.90
29939;DHT22;16799;50.844;5.304;2023-02-21T07:18:29;6.60;99.90
29939;DHT22;16799;50.844;5.304;2023-02-21T07:20:54;6.60;99.90
29939;DHT22;16799;50.844;5.304;2023-02-21T07:23:20;6.60;99.90
29939;DHT22;16799;50.844;5.304;2023-02-21T07:25:46;6.90;99.90
29939;DHT22;16799;50.844;5.304;2023-02-21T07:28:11;7.00;99.90
29939;DHT22;16799;50.844;5.304;2023-02-21T07:30:37;7.20;99.90
29939;DHT22;16799;50.844;5.304;2023-02-21T07:33:03;7.30;99.90
29939;DHT22;16799;50.844;5.304;2023-02-21T07:35:28;7.40;99.90
29939;DHT22;16799;50.844;5.304;2023-02-21T07:37:54;7.40;99.90
29939;DHT22;16799;50.844;5.304;2023-02-21T07:40:20;7.50;99.90
29939;DHT22;16799;50.844;5.304;2023-02-21T07:42:45;7.50;99.90
29939;DHT22;16799;50.844;5.304;2023-02-21T07:45:14;7.60;99.90
29939;DHT22;16799;50.844;5.304;2023-02-21T07:47:40;7.70;99.90
29939;DHT22;16799;50.844;5.304;2023-02-21T07:50:06;7.70;99.90
29939;DHT22;16799;50.844;5.304;2023-02-21T07:52:32;7.70;99.90
29939;DHT22;16799;50.844;5.304;2023-02-21T07:54:58;7.90;99.90
29939;DHT22;16799;50.844;5.304;2023-02-21T07:57:23;7.60;99.90
29939;DHT22;16799;50.844;5.304;2023-02-21T07:59:49;7.50;99.90
29939;DHT22;16799;50.844;5.304;2023-02-21T08:02:15;7.30;99.90
29939;DHT22;16799;50.844;5.304;2023-02-21T08:04:41;7.00;99.90
29939;DHT22;16799;50.844;5.304;2023-02-21T08:07:07;6.90;99.90
29939;DHT22;16799;50.844;5.304;2023-02-21T08:09:33;6.90;99.90
29939;DHT22;16799;50.844;5.304;2023-02-21T08:12:00;7.20;99.90
29939;DHT22;16799;50.844;5.304;2023-02-21T08:14:25;7.50;99.90
29939;DHT22;16799;50.844;5.304;2023-02-21T08:16:51;7.50;99.90
29939;DHT22;16799;50.844;5.304;2023-02-21T08:19:17;7.50;99.90
29939;DHT22;16799;50.844;5.304;2023-02-21T08:21:47;7.50;99.90
29939;DHT22;16799;50.844;5.304;2023-02-21T08:24:13;7.50;99.90
29939;DHT22;16799;50.844;5.304;2023-02-21T08:26:39;7.30;99.90
29939;DHT22;16799;50.844;5.304;2023-02-21T08:29:07;7.10;99.90
29939;DHT22;16799;50.844;5.304;2023-02-21T08:31:37;7.10;99.90
29939;DHT22;16799;50.844;5.304;2023-02-21T08:34:04;6.90;99.90
29939;DHT22;16799;50.844;5.304;2023-02-21T08:36:35;6.80;99.90
29939;DHT22;16799;50.844;5.304;2023-02-21T08:39:02;6.80;99.90
29939;DHT22;16799;50.844;5.304;2023-02-21T08:41:54;6.80;99.90
29939;DHT22;16799;50.844;5.304;2023-02-21T08:44:20;6.80;99.90
29939;DHT22;16799;50.844;5.304;2023-02-21T08:46:49;6.70;99.90
29939;DHT22;16799;50.844;5.304;2023-02-21T08:49:14;6.70;99.90
29939;DHT22;16799;50.844;5.304;2023-02-21T08:51:41;6.70;99.90
29939;DHT22;16799;50.844;5.304;2023-02-21T08:54:07;6.80;99.90
29939;DHT22;16799;50.844;5.304;2023-02-21T08:56:33;6.90;99.90
29939;DHT22;16799;50.844;5.304;2023-02-21T08:58:59;7.30;99.90
29939;DHT22;16799;50.844;5.304;2023-02-21T09:01:33;7.40;99.90
29939;DHT22;16799;50.844;5.304;2023-02-21T09:04:00;7.50;99.90
29939;DHT22;16799;50.844;5.304;2023-02-21T09:06:26;7.60;99.90
29939;DHT22;16799;50.844;5.304;2023-02-21T09:08:51;7.30;99.90
29939;DHT22;16799;50.844;5.304;2023-02-21T09:11:17;7.20;99.90
29939;DHT22;16799;50.844;5.304;2023-02-21T09:13:43;7.20;99.90
29939;DHT22;16799;50.844;5.304;2023-02-21T09:16:08;7.40;99.90
29939;DHT22;16799;50.844;5.304;2023-02-21T09:18:34;7.40;99.90
29939;DHT22;16799;50.844;5.304;2023-02-21T09:21:00;7.40;99.90
29939;DHT22;16799;50.844;5.304;2023-02-21T09:23:28;7.20;99.90
29939;DHT22;16799;50.844;5.304;2023-02-21T09:25:54;7.20;99.90
29939;DHT22;16799;50.844;5.304;2023-02-21T09:28:20;7.20;99.90
29939;DHT22;16799;50.844;5.304;2023-02-21T09:30:47;7.10;99.90
29939;DHT22;16799;50.844;5.304;2023-02-21T09:33:13;7.10;99.90
29939;DHT22;16799;50.844;5.304;2023-02-21T09:35:38;7.30;99.90
29939;DHT22;16799;50.844;5.304;2023-02-21T09:38:05;7.60;99.90
29939;DHT22;16799;50.844;5.304;2023-02-21T09:40:47;7.70;99.90
29939;DHT22;16799;50.844;5.304;2023-02-21T09:43:33;7.90;99.90
29939;DHT22;16799;50.844;5.304;2023-02-21T09:46:11;8.20;99.90
29939;DHT22;16799;50.844;5.304;2023-02-21T09:48:40;8.40;99.90
29939;DHT22;16799;50.844;5.304;2023-02-21T09:51:08;8.50;99.90
29939;DHT22;16799;50.844;5.304;2023-02-21T09:53:38;8.50;99.90
29939;DHT22;16799;50.844;5.304;2023-02-21T09:56:11;8.50;99.90
29939;DHT22;16799;50.844;5.304;2023-02-21T09:58:43;8.50;99.90
29939;DHT22;16799;50.844;5.304;2023-02-21T10:01:41;8.40;99.90
29939;DHT22;16799;50.844;5.304;2023-02-21T10:10:09;8.70;99.90
29939;DHT22;16799;50.844;5.304;2023-02-21T10:18:18;8.50;99.90
29939;DHT22;16799;50.844;5.304;2023-02-21T10:20:54;8.30;99.90
29939;DHT22;16799;50.844;5.304;2023-02-21T10:23:41;8.30;99.90
29939;DHT22;16799;50.844;5.304;2023-02-21T10:26:13;8.40;99.90
29939;DHT22;16799;50.844;5.304;2023-02-21T10:28:40;8.60;99.90
29939;DHT22;16799;50.844;5.304;2023-02-21T10:31:28;8.60;99.90
29939;DHT22;16799;50.844;5.304;2023-02-21T10:33:55;8.60;99.90
29939;DHT22;16799;50.844;5.304;2023-02-21T10:36:24;8.60;99.90
29939;DHT22;16799;50.844;5.304;2023-02-21T10:38:58;8.60;99.90
29939;DHT22;16799;50.844;5.304;2023-02-21T10:41:29;8.80;99.90
29939;DHT22;16799;50.844;5.304;2023-02-21T10:44:03;8.70;99.90
29939;DHT22;16799;50.844;5.304;2023-02-21T10:46:38;8.90;99.90
29939;DHT22;16799;50.844;5.304;2023-02-21T10:49:25;8.40;99.90
29939;DHT22;16799;50.844;5.304;2023-02-21T10:52:14;8.60;99.90
29939;DHT22;16799;50.844;5.304;2023-02-21T10:55:14;8.90;99.90
29939;DHT22;16799;50.844;5.304;2023-02-21T10:57:41;9.00;99.90
29939;DHT22;16799;50.844;5.304;2023-02-21T11:00:08;9.00;99.90
29939;DHT22;16799;50.844;5.304;2023-02-21T11:02:43;9.10;99.90
29939;DHT22;16799;50.844;5.304;2023-02-21T11:05:15;9.20;99.90
29939;DHT22;16799;50.844;5.304;2023-02-21T11:07:56;8.80;99.90
29939;DHT22;16799;50.844;5.304;2023-02-21T11:10:30;8.70;99.90
29939;DHT22;16799;50.844;5.304;2023-02-21T11:13:03;8.60;99.90
29939;DHT22;16799;50.844;5.304;2023-02-21T11:15:29;8.80;99.90
29939;DHT22;16799;50.844;5.304;2023-02-21T11:18:22;8.90;99.90
29939;DHT22;16799;50.844;5.304;2023-02-21T11:20:49;8.80;99.90
29939;DHT22;16799;50.844;5.304;2023-02-21T11:23:30;8.30;99.90
29939;DHT22;16799;50.844;5.304;2023-02-21T11:25:59;8.40;99.90
29939;DHT22;16799;50.844;5.304;2023-02-21T11:28:30;8.50;99.90
29939;DHT22;16799;50.844;5.304;2023-02-21T11:33:27;8.80;99.90
29939;DHT22;16799;50.844;5.304;2023-02-21T11:36:09;8.80;99.90
29939;DHT22;16799;50.844;5.304;2023-02-21T11:38:37;9.00;99.90
29939;DHT22;16799;50.844;5.304;2023-02-21T11:41:15;8.90;99.90
29939;DHT22;16799;50.844;5.304;2023-02-21T11:43:50;8.90;99.90
29939;DHT22;16799;50.844;5.304;2023-02-21T11:46:38;9.10;99.90
29939;DHT22;16799;50.844;5.304;2023-02-21T11:49:35;8.90;99.90
29939;DHT22;16799;50.844;5.304;2023-02-21T11:52:06;9.00;99.90
29939;DHT22;16799;50.844;5.304;2023-02-21T11:54:33;8.80;99.90
29939;DHT22;16799;50.844;5.304;2023-02-21T12:03:18;8.10;99.90
29939;DHT22;16799;50.844;5.304;2023-02-21T12:06:04;8.00;99.90
29939;DHT22;16799;50.844;5.304;2023-02-21T12:11:21;8.40;99.90
29939;DHT22;16799;50.844;5.304;2023-02-21T12:14:08;8.30;99.90
29939;DHT22;16799;50.844;5.304;2023-02-21T12:16:43;8.40;99.90
29939;DHT22;16799;50.844;5.304;2023-02-21T12:32:25;8.20;99.90
29939;DHT22;16799;50.844;5.304;2023-02-21T12:37:42;8.60;99.90
29939;DHT22;16799;50.844;5.304;2023-02-21T12:40:38;8.90;99.90
29939;DHT22;16799;50.844;5.304;2023-02-21T12:46:19;9.40;99.90
29939;DHT22;16799;50.844;5.304;2023-02-21T12:49:03;9.40;99.90
29939;DHT22;16799;50.844;5.304;2023-02-21T12:51:43;9.10;99.90
29939;DHT22;16799;50.844;5.304;2023-02-21T12:54:33;9.20;99.90
29939;DHT22;16799;50.844;5.304;2023-02-21T12:57:06;8.60;99.90
29939;DHT22;16799;50.844;5.304;2023-02-21T12:59:45;8.20;99.90
29939;DHT22;16799;50.844;5.304;2023-02-21T13:05:20;8.20;99.90
29939;DHT22;16799;50.844;5.304;2023-02-21T13:08:04;8.10;99.90
29939;DHT22;16799;50.844;5.304;2023-02-21T13:13:26;8.70;99.90
29939;DHT22;16799;50.844;5.304;2023-02-21T13:15:53;9.20;99.90
29939;DHT22;16799;50.844;5.304;2023-02-21T13:18:26;9.30;99.90
29939;DHT22;16799;50.844;5.304;2023-02-21T13:29:40;8.60;99.90
29939;DHT22;16799;50.844;5.304;2023-02-21T13:32:15;8.50;99.90
29939;DHT22;16799;50.844;5.304;2023-02-21T13:35:08;8.70;99.90
29939;DHT22;16799;50.844;5.304;2023-02-21T13:37:42;8.50;99.90
29939;DHT22;16799;50.844;5.304;2023-02-21T13:40:25;8.60;99.90
29939;DHT22;16799;50.844;5.304;2023-02-21T13:43:09;8.80;99.90
29939;DHT22;16799;50.844;5.304;2023-02-21T13:45:37;8.70;99.90
29939;DHT22;16799;50.844;5.304;2023-02-21T13:53:20;8.80;99.90
29939;DHT22;16799;50.844;5.304;2023-02-21T13:58:39;9.40;99.90
29939;DHT22;16799;50.844;5.304;2023-02-21T14:03:42;9.20;99.90
29939;DHT22;16799;50.844;5.304;2023-02-21T14:08:47;8.90;99.90
29939;DHT22;16799;50.844;5.304;2023-02-21T14:11:24;8.80;99.90
29939;DHT22;16799;50.844;5.304;2023-02-21T14:14:05;8.70;99.90
29939;DHT22;16799;50.844;5.304;2023-02-21T14:16:57;9.00;99.90
29939;DHT22;16799;50.844;5.304;2023-02-21T14:19:30;8.90;99.90
29939;DHT22;16799;50.844;5.304;2023-02-21T14:22:16;9.10;99.90
29939;DHT22;16799;50.844;5.304;2023-02-21T14:24:50;9.10;99.90
29939;DHT22;16799;50.844;5.304;2023-02-21T14:32:45;9.50;99.90
29939;DHT22;16799;50.844;5.304;2023-02-21T14:35:30;9.30;99.90
29939;DHT22;16799;50.844;5.304;2023-02-21T14:38:06;9.30;99.90
29939;DHT22;16799;50.844;5.304;2023-02-21T14:43:57;9.00;99.90
29939;DHT22;16799;50.844;5.304;2023-02-21T14:55:33;9.10;99.90
29939;DHT22;16799;50.844;5.304;2023-02-21T15:03:47;9.90;99.90
29939;DHT22;16799;50.844;5.304;2023-02-21T15:06:19;9.70;99.90
29939;DHT22;16799;50.844;5.304;2023-02-21T15:08:48;9.80;99.90
29939;DHT22;16799;50.844;5.304;2023-02-21T15:11:39;10.00;99.90
29939;DHT22;16799;50.844;5.304;2023-02-21T15:14:26;9.90;99.90
29939;DHT22;16799;50.844;5.304;2023-02-21T15:16:55;10.10;99.90
29939;DHT22;16799;50.844;5.304;2023-02-21T15:19:27;10.40;99.90
29939;DHT22;16799;50.844;5.304;2023-02-21T15:22:13;10.60;99.90
29939;DHT22;16799;50.844;5.304;2023-02-21T15:24:39;10.70;99.90
29939;DHT22;16799;50.844;5.304;2023-02-21T15:27:10;10.40;99.90
29939;DHT22;16799;50.844;5.304;2023-02-21T15:29:37;10.70;99.90
29939;DHT22;16799;50.844;5.304;2023-02-21T15:32:05;10.40;99.90
29939;DHT22;16799;50.844;5.304;2023-02-21T15:34:41;10.10;99.90
29939;DHT22;16799;50.844;5.304;2023-02-21T15:37:22;10.50;99.90
29939;DHT22;16799;50.844;5.304;2023-02-21T15:39:51;10.40;99.90
29939;DHT22;16799;50.844;5.304;2023-02-21T15:42:18;10.20;99.90
29939;DHT22;16799;50.844;5.304;2023-02-21T15:45:05;10.20;99.90
29939;DHT22;16799;50.844;5.304;2023-02-21T15:47:33;10.60;99.90
29939;DHT22;16799;50.844;5.304;2023-02-21T15:52:37;10.40;99.90
29939;DHT22;16799;50.844;5.304;2023-02-21T16:00:38;10.60;99.90
29939;DHT22;16799;50.844;5.304;2023-02-21T16:03:27;10.60;99.90
29939;DHT22;16799;50.844;5.304;2023-02-21T16:08:50;9.90;99.90
29939;DHT22;16799;50.844;5.304;2023-02-21T16:11:17;9.70;99.90
29939;DHT22;16799;50.844;5.304;2023-02-21T16:13:43;9.90;99.90
29939;DHT22;16799;50.844;5.304;2023-02-21T16:16:09;10.00;99.90
29939;DHT22;16799;50.844;5.304;2023-02-21T16:18:35;10.00;99.90
29939;DHT22;16799;50.844;5.304;2023-02-21T16:21:04;10.00;99.90
29939;DHT22;16799;50.844;5.304;2023-02-21T16:23:34;9.90;99.90
29939;DHT22;16799;50.844;5.304;2023-02-21T16:28:38;9.60;99.90
29939;DHT22;16799;50.844;5.304;2023-02-21T16:31:06;9.70;99.90
29939;DHT22;16799;50.844;5.304;2023-02-21T16:33:33;9.70;99.90
29939;DHT22;16799;50.844;5.304;2023-02-21T16:36:04;9.60;99.90
29939;DHT22;16799;50.844;5.304;2023-02-21T16:38:30;9.70;99.90
29939;DHT22;16799;50.844;5.304;2023-02-21T16:40:56;9.60;99.90
29939;DHT22;16799;50.844;5.304;2023-02-21T16:43:27;9.50;99.90
29939;DHT22;16799;50.844;5.304;2023-02-21T16:45:54;9.30;99.90
29939;DHT22;16799;50.844;5.304;2023-02-21T16:48:27;9.10;99.90
29939;DHT22;16799;50.844;5.304;2023-02-21T16:50:58;9.10;99.90
29939;DHT22;16799;50.844;5.304;2023-02-21T16:53:24;9.00;99.90
29939;DHT22;16799;50.844;5.304;2023-02-21T16:55:50;8.90;99.90
29939;DHT22;16799;50.844;5.304;2023-02-21T17:01:06;8.80;99.90
29939;DHT22;16799;50.844;5.304;2023-02-21T17:03:32;8.70;99.90
29939;DHT22;16799;50.844;5.304;2023-02-21T17:05:59;8.50;99.90
29939;DHT22;16799;50.844;5.304;2023-02-21T17:08:25;8.40;99.90
29939;DHT22;16799;50.844;5.304;2023-02-21T17:10:53;8.30;99.90
29939;DHT22;16799;50.844;5.304;2023-02-21T17:13:18;8.30;99.90
29939;DHT22;16799;50.844;5.304;2023-02-21T17:15:44;8.20;99.90
29939;DHT22;16799;50.844;5.304;2023-02-21T17:18:12;8.00;99.90
29939;DHT22;16799;50.844;5.304;2023-02-21T17:20:37;8.00;99.90
29939;DHT22;16799;50.844;5.304;2023-02-21T17:23:03;8.00;99.90
29939;DHT22;16799;50.844;5.304;2023-02-21T17:25:29;8.00;99.90
29939;DHT22;16799;50.844;5.304;2023-02-21T17:27:55;7.90;99.90
29939;DHT22;16799;50.844;5.304;2023-02-21T17:30:23;7.60;99.90
29939;DHT22;16799;50.844;5.304;2023-02-21T17:32:49;7.30;99.90
29939;DHT22;16799;50.844;5.304;2023-02-21T17:35:16;7.20;99.90
29939;DHT22;16799;50.844;5.304;2023-02-21T17:37:44;7.30;99.90
29939;DHT22;16799;50.844;5.304;2023-02-21T17:40:12;7.00;99.90
29939;DHT22;16799;50.844;5.304;2023-02-21T17:42:38;6.90;99.90
29939;DHT22;16799;50.844;5.304;2023-02-21T17:45:05;6.90;99.90
29939;DHT22;16799;50.844;5.304;2023-02-21T17:47:31;6.70;99.90
29939;DHT22;16799;50.844;5.304;2023-02-21T17:49:57;6.60;99.90
29939;DHT22;16799;50.844;5.304;2023-02-21T17:52:25;6.60;99.90
29939;DHT22;16799;50.844;5.304;2023-02-21T17:54:51;6.60;99.90
29939;DHT22;16799;50.844;5.304;2023-02-21T17:57:17;6.60;99.90
29939;DHT22;16799;50.844;5.304;2023-02-21T17:59:43;6.70;99.90
29939;DHT22;16799;50.844;5.304;2023-02-21T18:02:10;6.70;99.90
29939;DHT22;16799;50.844;5.304;2023-02-21T18:04:36;6.70;99.90
29939;DHT22;16799;50.844;5.304;2023-02-21T18:07:02;6.50;99.90
29939;DHT22;16799;50.844;5.304;2023-02-21T18:09:28;6.40;99.90
29939;DHT22;16799;50.844;5.304;2023-02-21T18:11:55;6.20;99.90
29939;DHT22;16799;50.844;5.304;2023-02-21T18:14:21;6.30;99.90
29939;DHT22;16799;50.844;5.304;2023-02-21T18:16:48;6.20;99.90
29939;DHT22;16799;50.844;5.304;2023-02-21T18:19:14;6.30;99.90
29939;DHT22;16799;50.844;5.304;2023-02-21T18:21:40;6.30;99.90
29939;DHT22;16799;50.844;5.304;2023-02-21T18:24:11;6.30;99.90
29939;DHT22;16799;50.844;5.304;2023-02-21T18:26:37;6.30;99.90
29939;DHT22;16799;50.844;5.304;2023-02-21T18:29:04;6.20;99.90
29939;DHT22;16799;50.844;5.304;2023-02-21T18:31:29;6.10;99.90
29939;DHT22;16799;50.844;5.304;2023-02-21T18:33:55;6.10;99.90
29939;DHT22;16799;50.844;5.304;2023-02-21T18:36:21;6.00;99.90
29939;DHT22;16799;50.844;5.304;2023-02-21T18:38:47;5.90;99.90
29939;DHT22;16799;50.844;5.304;2023-02-21T18:41:16;5.90;99.90
29939;DHT22;16799;50.844;5.304;2023-02-21T18:43:45;5.90;99.90
29939;DHT22;16799;50.844;5.304;2023-02-21T18:46:13;5.80;99.90